• Join FlightAware (Why Join?)
  • Login
  • US Flag 
05:22PM EST


 

Airport Tracker/Info


-or-


 

Live Flight TrackerFlight Track Log ✈ UAL33 ✈ 13-Feb-2014 ✈ RJAA / NRT - KLAX

Flight Track Log - Related Links

Times and Time Zones

All times are in EST time to prevent confusion due to time zone crossing. See the UAL33 flight status page for this flight to view local times or setup timezone preferences in your user account.

Time Position Orientation Groundspeed Altitude Reporting Facility
EST Latitude Longitude Course Direction KTS MPH feet Rate Location/Type
04:49AM 36.2356 141.2554 56° Northeast  Level FlightAware Approximate
04:50AM 36.3135 141.4012 56° Northeast  Level FlightAware Approximate
04:51AM 36.3912 141.5474 57° Northeast  Level FlightAware Approximate
04:52AM 36.4687 141.6938 57° Northeast  Level FlightAware Approximate
04:53AM 36.5460 141.8405 57° Northeast  Level FlightAware Approximate
04:54AM 36.6232 141.9876 57° Northeast  Level FlightAware Approximate
04:55AM 36.7008 142.1362 57° Northeast  Level FlightAware Approximate
04:56AM 36.7783 142.2851 57° Northeast  Level FlightAware Approximate
04:57AM 36.8556 142.4344 57° Northeast  Level FlightAware Approximate
04:58AM 36.9327 142.5839 57° Northeast  Level FlightAware Approximate
04:59AM 37.0041 142.7228 57° Northeast  Level FlightAware Approximate
05:00AM 37.0809 142.8729 57° Northeast  Level FlightAware Approximate
05:01AM 37.1575 143.0232 57° Northeast  Level FlightAware Approximate
05:02AM 37.2340 143.1739 57° Northeast  Level FlightAware Approximate
05:03AM 37.3102 143.3248 58° Northeast  Level FlightAware Approximate
05:04AM 37.3863 143.4761 58° Northeast  Level FlightAware Approximate
05:05AM 37.4622 143.6277 58° Northeast  Level FlightAware Approximate
05:06AM 37.5379 143.7796 58° Northeast  Level FlightAware Approximate
05:07AM 37.6132 143.9315 58° Northeast  Level FlightAware Approximate
05:08AM 37.6884 144.0837 58° Northeast  Level FlightAware Approximate
05:09AM 37.7633 144.2363 58° Northeast  Level FlightAware Approximate
05:10AM 37.8381 144.3891 58° Northeast  Level FlightAware Approximate
05:11AM 37.9127 144.5422 58° Northeast  Level FlightAware Approximate
05:12AM 37.9870 144.6957 58° Northeast  Level FlightAware Approximate
05:13AM 38.0612 144.8495 58° Northeast  Level FlightAware Approximate
05:14AM 38.1352 145.0036 59° Northeast  Level FlightAware Approximate
05:15AM 38.2089 145.1580 59° Northeast  Level FlightAware Approximate
05:16AM 38.2825 145.3127 59° Northeast  Level FlightAware Approximate
05:17AM 38.3572 145.4705 59° Northeast  Level FlightAware Approximate
05:18AM 38.4316 145.6287 59° Northeast  Level FlightAware Approximate
05:19AM 38.5059 145.7872 59° Northeast  Level FlightAware Approximate
05:20AM 38.5800 145.9461 59° Northeast  Level FlightAware Approximate
05:21AM 38.6538 146.1052 59° Northeast  Level FlightAware Approximate
05:22AM 38.7274 146.2647 59° Northeast  Level FlightAware Approximate
05:23AM 38.7995 146.4217 59° Northeast  Level FlightAware Approximate
05:24AM 38.8714 146.5789 60° Northeast  Level FlightAware Approximate
05:25AM 38.9431 146.7365 60° Northeast  Level FlightAware Approximate
05:26AM 39.0145 146.8944 60° Northeast  Level FlightAware Approximate
05:27AM 39.0858 147.0527 60° Northeast  Level FlightAware Approximate
05:28AM 39.1568 147.2112 60° Northeast  Level FlightAware Approximate
05:29AM 39.2276 147.3701 60° Northeast  Level FlightAware Approximate
05:30AM 39.2982 147.5293 60° Northeast  Level FlightAware Approximate
05:31AM 39.3686 147.6888 60° Northeast  Level FlightAware Approximate
05:32AM 39.4388 147.8486 60° Northeast  Level FlightAware Approximate
05:33AM 39.5087 148.0088 60° Northeast  Level FlightAware Approximate
05:34AM 39.5784 148.1692 61° Northeast  Level FlightAware Approximate
05:35AM 39.6479 148.3300 61° Northeast  Level FlightAware Approximate
05:36AM 39.7172 148.4911 61° Northeast  Level FlightAware Approximate
05:37AM 39.7863 148.6526 61° Northeast  Level FlightAware Approximate
05:38AM 39.8551 148.8143 61° Northeast  Level FlightAware Approximate
05:39AM 39.9237 148.9764 61° Northeast  Level FlightAware Approximate
05:40AM 39.9921 149.1389 61° Northeast  Level FlightAware Approximate
05:41AM 40.0602 149.3016 61° Northeast  Level FlightAware Approximate
05:42AM 40.1282 149.4646 61° Northeast  Level FlightAware Approximate
05:43AM 40.1959 149.6280 61° Northeast  Level FlightAware Approximate
05:44AM 40.2633 149.7918 62° Northeast  Level FlightAware Approximate
05:45AM 40.3306 149.9558 62° Northeast  Level FlightAware Approximate
05:46AM 40.3976 150.1202 62° Northeast  Level FlightAware Approximate
05:47AM 40.4643 150.2849 62° Northeast  Level FlightAware Approximate
05:48AM 40.5310 150.4502 62° Northeast  Level FlightAware Approximate
05:49AM 40.5974 150.6158 62° Northeast  Level FlightAware Approximate
05:50AM 40.6636 150.7818 62° Northeast  Level FlightAware Approximate
05:51AM 40.7295 150.9481 62° Northeast  Level FlightAware Approximate
05:52AM 40.7953 151.1148 62° Northeast  Level FlightAware Approximate
05:53AM 40.8607 151.2817 63° Northeast  Level FlightAware Approximate
05:54AM 40.9260 151.4490 63° Northeast  Level FlightAware Approximate
05:55AM 40.9909 151.6166 63° Northeast  Level FlightAware Approximate
05:56AM 41.0557 151.7846 63° Northeast  Level FlightAware Approximate
05:57AM 41.1202 151.9529 63° Northeast  Level FlightAware Approximate
05:58AM 41.1844 152.1215 63° Northeast  Level FlightAware Approximate
05:59AM 41.2484 152.2905 63° Northeast  Level FlightAware Approximate
06:00AM 41.3122 152.4597 63° Northeast  Level FlightAware Approximate
06:01AM 41.3757 152.6293 63° Northeast  Level FlightAware Approximate
06:02AM 41.4389 152.7993 64° Northeast  Level FlightAware Approximate
06:03AM 41.5020 152.9695 64° Northeast  Level FlightAware Approximate
06:04AM 41.5647 153.1402 64° Northeast  Level FlightAware Approximate
06:05AM 41.6272 153.3111 64° Northeast  Level FlightAware Approximate
06:06AM 41.6895 153.4823 64° Northeast  Level FlightAware Approximate
06:07AM 41.7515 153.6539 64° Northeast  Level FlightAware Approximate
06:08AM 41.8132 153.8259 64° Northeast  Level FlightAware Approximate
06:09AM 41.8747 153.9981 64° Northeast  Level FlightAware Approximate
06:10AM 41.9359 154.1707 64° Northeast  Level FlightAware Approximate
06:11AM 41.9969 154.3436 65° Northeast  Level FlightAware Approximate
06:12AM 42.0573 154.5171 65° Northeast  Level FlightAware Approximate
06:13AM 42.1173 154.6909 65° Northeast  Level FlightAware Approximate
06:14AM 42.1770 154.8651 65° Northeast  Level FlightAware Approximate
06:15AM 42.2365 155.0396 65° Northeast  Level FlightAware Approximate
06:16AM 42.2957 155.2145 65° Northeast  Level FlightAware Approximate
06:17AM 42.3546 155.3897 65° Northeast  Level FlightAware Approximate
06:18AM 42.4133 155.5652 66° East  Level FlightAware Approximate
06:19AM 42.4717 155.7410 66° East  Level FlightAware Approximate
06:20AM 42.5298 155.9172 66° East  Level FlightAware Approximate
06:21AM 42.5877 156.0936 66° East  Level FlightAware Approximate
06:22AM 42.6452 156.2705 66° East  Level FlightAware Approximate
06:23AM 42.7026 156.4476 66° East  Level FlightAware Approximate
06:24AM 42.7596 156.6251 66° East  Level FlightAware Approximate
06:25AM 42.8164 156.8029 66° East  Level FlightAware Approximate
06:26AM 42.8729 156.9810 67° East  Level FlightAware Approximate
06:27AM 42.9291 157.1594 67° East  Level FlightAware Approximate
06:28AM 42.9850 157.3382 67° East  Level FlightAware Approximate
06:29AM 43.0407 157.5173 67° East  Level FlightAware Approximate
06:30AM 43.0961 157.6967 67° East  Level FlightAware Approximate
06:31AM 43.1512 157.8765 67° East  Level FlightAware Approximate
06:32AM 43.2060 158.0565 67° East  Level FlightAware Approximate
06:33AM 43.2605 158.2369 67° East  Level FlightAware Approximate
06:34AM 43.3148 158.4176 68° East  Level FlightAware Approximate
06:35AM 43.3687 158.5987 68° East  Level FlightAware Approximate
06:36AM 43.4224 158.7800 68° East  Level FlightAware Approximate
06:37AM 43.4758 158.9617 68° East  Level FlightAware Approximate
06:38AM 43.5289 159.1437 68° East  Level FlightAware Approximate
06:39AM 43.5817 159.3260 68° East  Level FlightAware Approximate
06:40AM 43.6342 159.5087 68° East  Level FlightAware Approximate
06:41AM 43.6865 159.6916 68° East  Level FlightAware Approximate
06:42AM 43.7384 159.8749 69° East  Level FlightAware Approximate
06:43AM 43.7901 160.0585 69° East  Level FlightAware Approximate
06:44AM 43.8414 160.2424 69° East  Level FlightAware Approximate
06:45AM 43.8927 160.4265 69° East  Level FlightAware Approximate
06:46AM 43.9456 160.6173 69° East  Level FlightAware Approximate
06:47AM 43.9966 160.8023 69° East  Level FlightAware Approximate
06:48AM 44.0472 160.9876 69° East  Level FlightAware Approximate
06:49AM 44.0976 161.1732 69° East  Level FlightAware Approximate
06:50AM 44.1477 161.3592 69° East  Level FlightAware Approximate
06:51AM 44.1974 161.5454 70° East  Level FlightAware Approximate
06:52AM 44.2468 161.7320 70° East  Level FlightAware Approximate
06:53AM 44.2960 161.9189 70° East  Level FlightAware Approximate
06:54AM 44.3448 162.1060 70° East  Level FlightAware Approximate
06:55AM 44.3934 162.2935 70° East  Level FlightAware Approximate
06:56AM 44.4416 162.4814 70° East  Level FlightAware Approximate
06:57AM 44.4895 162.6695 70° East  Level FlightAware Approximate
06:58AM 44.5371 162.8579 70° East  Level FlightAware Approximate
06:59AM 44.5844 163.0466 71° East  Level FlightAware Approximate
07:00AM 44.6314 163.2357 71° East  Level FlightAware Approximate
07:01AM 44.6781 163.4250 71° East  Level FlightAware Approximate
07:02AM 44.7244 163.6147 71° East  Level FlightAware Approximate
07:03AM 44.7705 163.8046 71° East  Level FlightAware Approximate
07:04AM 44.8162 163.9948 71° East  Level FlightAware Approximate
07:05AM 44.8616 164.1854 71° East  Level FlightAware Approximate
07:06AM 44.9067 164.3763 71° East  Level FlightAware Approximate
07:07AM 44.9515 164.5674 72° East  Level FlightAware Approximate
07:08AM 44.9960 164.7589 72° East  Level FlightAware Approximate
07:09AM 45.0401 164.9506 72° East  Level FlightAware Approximate
07:09AM 44.4667 164.4167 67° East 528 608 39,000  Level Oakland Oceanic (ODAPS)
07:22AM 45.2333 167.0667 68° East 524 603 39,000  Level Oakland Oceanic (ODAPS)
07:24AM 45.2333 167.0667 68° East 524 603 39,000  Level Oakland Oceanic (ODAPS)
07:37AM 45.9333 169.7500 69° East 504 580 39,000  Level Oakland Oceanic (ODAPS)
07:39AM 46.0500 170.2000 70° East 513 590 39,000  Level Oakland Oceanic (ODAPS)
07:50AM 46.5667 172.4000 72° East 507 583 39,000  Level Oakland Oceanic (ODAPS)
08:04AM 47.1500 175.0833 74° East 492 566 39,000  Level Oakland Oceanic (ODAPS)
08:18AM 47.6500 177.7833 76° East 500 575 39,000  Level Oakland Oceanic (ODAPS)
08:29AM 48.0000 180.0000 95° East 536 617 39,000  Level Oakland Oceanic (ODAPS)
08:32AM 47.9667 -179.3333 95° East 538 619 39,000  Level Oakland Oceanic (ODAPS)
08:46AM 47.7333 -176.3167 97° East 536 617 39,000  Level Oakland Oceanic (ODAPS)
08:59AM 47.4333 -173.3167 100° East 526 605 39,000  Level Oakland Oceanic (ODAPS)
09:13AM 47.0500 -170.3833 101° East 533 613 39,000  Level Oakland Oceanic (ODAPS)
09:15AM 47.0000 -170.0000 102° East 534 615 39,000  Level Oakland Oceanic (ODAPS)
09:27AM 46.5833 -167.4333 104° East 538 619 39,000  Level Oakland Oceanic (ODAPS)
09:41AM 46.0333 -164.5500 106° East 533 613 39,000  Level Oakland Oceanic (ODAPS)
09:55AM 45.4333 -161.7667 109° East 534 615 39,000  Level Oakland Oceanic (ODAPS)
10:04AM 45.0000 -160.0000 102° East 537 618 39,000  Level Oakland Oceanic (ODAPS)
10:09AM 44.8500 -158.9833 103° East 540 621 39,000  Level Oakland Oceanic (ODAPS)
10:23AM 44.3667 -156.2000 105° East 540 621 39,000  Level Oakland Oceanic (ODAPS)
10:36AM 43.8000 -153.4667 106° East 536 617 39,000  Level Oakland Oceanic (ODAPS)
10:50AM 43.1833 -150.7500 108° East 540 621 39,000  Level Oakland Oceanic (ODAPS)
10:54AM 43.0000 -150.0000 94° East 568 654 39,000  Level Oakland Oceanic (ODAPS)
11:04AM 42.8667 -147.8833 96° East 579 666 39,000  Level Oakland Oceanic (ODAPS)
11:18AM 42.6167 -144.9833 98° East 573 659 39,000  Level Oakland Oceanic (ODAPS)
11:32AM 42.2833 -142.0500 100° East 588 677 39,000  Level Oakland Oceanic (ODAPS)
11:42AM 42.0000 -140.0000 102° East 589 678 39,000  Level Oakland Oceanic (ODAPS)
11:49AM 41.8667 -139.1000 102° East 593 682 39,000  Level Oakland Oceanic (ODAPS)
11:50AM 41.7167 -138.2667 103° East 601 692 39,000 180 Level Oakland Oceanic (ODAPS)
12:00PM 41.3333 -136.1167 104° East 571 657 41,000 60 Climbing Oakland Oceanic (ODAPS)
12:14PM 40.7667 -133.2833 106° East 593 682 41,000  Level Oakland Oceanic (ODAPS)
12:27PM 40.1167 -130.4500 109° East 580 667 41,000  Level Oakland Oceanic (ODAPS)
12:30PM 40.0000 -130.0000 122° Southeast 575 662 41,000  Level Oakland Oceanic (ODAPS)
12:41PM 39.0000 -128.0167 124° Southeast 558 642 41,000 -60 Level Oakland Oceanic (ODAPS)
12:45PM 38.7083 -127.4564 111° Southeast 545 627 40,800  Descending Oakland Center
12:46PM 38.5590 -127.1729 124° Southeast 575 662 41,000 -2,880 Climbing FlightAware Transoceanic
12:46PM 38.6272 -127.2978 123° Southeast 538 619 37,900  Descending Oakland Center
12:47PM 38.4667 -127.0000 111° Southeast 575 662 41,000 -900 Climbing FlightAware Transoceanic
12:47PM 38.5372 -127.1286 124° Southeast 573 659 37,000  Descending Oakland Center
12:48PM 38.4667 -127.0000 111° Southeast 558 642 41,000 -120 Climbing FlightAware Transoceanic
12:48PM 38.4547 -126.9531 121° Southeast 581 669 36,900  Descending Oakland Center
12:49PM 38.4094 -126.8114 111° Southeast 558 642 41,000 60 Climbing FlightAware Transoceanic
12:49PM 38.3922 -126.7614 113° Southeast 587 676 37,000  Descending Oakland Center
12:50PM 38.3518 -126.6232 111° Southeast 558 642 41,000  Climbing FlightAware Transoceanic
12:50PM 38.3397 -126.5631 109° East 590 679 37,000 -3,120 Descending Oakland Center
12:51PM 38.2861 -126.3678 109° East 589 678 36,900 -60 Descending Oakland Center
12:52PM 38.2256 -126.1500 109° East 590 679 36,900  Level Oakland Center
12:53PM 38.1719 -125.9553 109° East 586 674 37,000  Climbing Oakland Center
12:54PM 38.1186 -125.7628 109° East 583 671 37,000 -60 Level Oakland Center
12:55PM 38.0636 -125.5706 110° East 582 670 36,900  Descending Oakland Center
12:56PM 38.0097 -125.3794 110° East 578 665 37,000  Climbing Oakland Center
12:57PM 37.9447 -125.1522 110° East 576 663 36,900 -60 Descending Oakland Center
12:58PM 37.8900 -124.9614 110° East 577 664 36,900  Level Oakland Center
12:59PM 37.8347 -124.7700 110° East 579 666 36,900  Level Oakland Center
01:00PM 37.7792 -124.5811 110° East 577 664 36,900  Level Oakland Center
01:01PM 37.7228 -124.3925 111° Southeast 574 661 36,900  Level Oakland Center
01:02PM 37.6678 -124.2036 110° East 576 663 37,000  Climbing Oakland Center
01:03PM 37.6111 -124.0167 111° Southeast 575 662 37,000  Level Oakland Center
01:04PM 37.5550 -123.8303 111° Southeast 573 659 37,000  Level Oakland Center
01:05PM 37.4856 -123.6081 111° Southeast 570 656 37,000  Level Oakland Center
01:11PM 37.0935 -122.5580 111° Southeast 563 648 37,000  Level FlightAware ADS-B
01:12PM 37.0494 -122.4760 124° Southeast 563 648 37,000  Level FlightAware ADS-B
01:12PM 36.9869 -122.3610 124° Southeast 565 650 37,000  Level FlightAware ADS-B
01:13PM 36.9269 -122.2500 124° Southeast 564 649 37,000  Level FlightAware ADS-B
01:14PM 36.8736 -122.1530 124° Southeast 563 648 37,000  Level FlightAware ADS-B
01:15PM 36.7456 -121.9190 124° Southeast 563 648 37,000  Level FlightAware ADS-B
01:16PM 36.6942 -121.8260 125° Southeast 563 648 37,000  Level FlightAware ADS-B
01:16PM 36.6284 -121.7070 125° Southeast 560 644 37,000  Level FlightAware ADS-B
01:19PM 36.4381 -121.3650 125° Southeast 561 646 37,000 -120 Level FlightAware ADS-B
01:19PM 36.3921 -121.2830 125° Southeast 561 646 36,700 -1,200 Descending FlightAware ADS-B
01:20PM 36.3301 -121.1720 125° Southeast 564 649 35,600 -1,560 Descending FlightAware ADS-B
01:20PM 36.2889 -121.1028 125° Southeast 558 642 34,700 -1,500 Descending Los Angeles Center
01:22PM 36.1814 -120.9133 125° Southeast 560 644 33,000 -840 Descending Oakland Center
01:23PM 36.0922 -120.7561 125° Southeast 558 642 32,900 -60 Descending Oakland Center
01:24PM 36.0036 -120.5978 125° Southeast 558 642 32,900  Level Oakland Center
01:25PM 35.9136 -120.4408 125° Southeast 559 643 33,000  Climbing Oakland Center
01:26PM 35.8233 -120.2844 125° Southeast 556 640 32,900 -60 Descending Oakland Center
01:27PM 35.7339 -120.1286 125° Southeast 552 635 32,900 -60 Level Oakland Center
01:28PM 35.6378 -119.9775 128° Southeast 553 636 32,800 -660 Descending Oakland Center
01:29PM 35.5150 -119.8619 143° Southeast 551 634 31,600 -900 Descending Oakland Center
01:30PM 35.3878 -119.7536 145° Southeast 551 634 31,000 -300 Descending Oakland Center
01:31PM 35.2619 -119.6453 145° Southeast 551 634 31,000 -720 Level Oakland Center
01:32PM 35.1372 -119.5406 146° Southeast 545 627 29,600 -2,160 Descending Oakland Center
01:33PM 34.9931 -119.4175 145° Southeast 529 609 26,600 -2,280 Descending Los Angeles Center
01:34PM 34.8778 -119.3203 145° Southeast 512 589 24,400 -2,580 Descending Los Angeles Center
01:35PM 34.7458 -119.2083 145° Southeast 487 560 20,800 -2,880 Descending Los Angeles Center
01:36PM 34.6283 -119.1086 145° Southeast 472 543 18,500 -2,160 Descending Los Angeles Center
01:37PM 34.5189 -119.0156 145° Southeast 453 521 16,400 -2,040 Descending Los Angeles Center
01:38PM 34.4211 -118.9328 145° Southeast 427 491 14,300 -1,740 Descending Los Angeles Center
01:39PM 34.3208 -118.8686 152° Southeast 411 473 12,800 -1,020 Descending Los Angeles Center
01:40PM 34.2236 -118.8317 163° South 368 423 12,300 -540 Descending Los Angeles Center
01:41PM 34.1372 -118.8006 163° South 326 375 11,700 -780 Descending Los Angeles Center
01:42PM 34.0528 -118.7606 159° South 285 328 10,700 -1,320 Descending Los Angeles Center
01:48PM 34.0339 -118.2987 159° South 227 261 3,300 -1,260 Descending FlightAware ADS-B
01:49PM 34.0400 -118.2603 159° South 236 272 2,900 -180 Descending Los Angeles Center
01:50PM 34.0053 -118.2111 130° Southeast 222 255 3,000 -300 Climbing Los Angeles Center
01:51PM 33.9697 -118.2575 227° Southwest 197 227 2,400 -780 Descending Los Angeles Center
01:52PM 33.9622 -118.3119 261° West 175 201 1,500 -780 Descending Los Angeles Center
01:53PM 33.9578 -118.3611 264° West 160 184 800 -660 Descending Los Angeles Center
01:54PM 33.9531 -118.3992 262° West 152 175 200 -600 Descending Los Angeles Center